createdAt,value
2018-05-21T00:01:20.595Z,46.20
2018-05-21T00:03:48.353Z,45.70
2018-05-21T00:06:16.072Z,46.00
2018-05-21T00:08:43.825Z,45.30
2018-05-21T00:11:12.309Z,46.20
2018-05-21T00:13:40.153Z,46.20
2018-05-21T00:16:07.858Z,46.20
2018-05-21T00:18:35.560Z,45.90
2018-05-21T00:21:03.372Z,46.10
2018-05-21T00:23:31.073Z,46.60
2018-05-21T00:25:58.774Z,46.10
2018-05-21T00:28:27.276Z,47.10
2018-05-21T00:30:55.845Z,46.80
2018-05-21T00:33:24.733Z,47.10
2018-05-21T00:35:53.194Z,47.10
2018-05-21T00:38:20.891Z,47.10
2018-05-21T00:40:49.397Z,47.10
2018-05-21T00:43:17.105Z,47.10
2018-05-21T00:45:45.316Z,47.10
2018-05-21T00:48:13.806Z,48.30
2018-05-21T00:50:42.027Z,48.30
2018-05-21T00:53:09.783Z,48.00
2018-05-21T00:55:38.414Z,48.40
2018-05-21T00:58:06.948Z,48.20
2018-05-21T01:00:34.784Z,48.30
2018-05-21T01:03:02.478Z,49.10
2018-05-21T01:05:30.192Z,48.20
2018-05-21T01:07:58.695Z,49.00
2018-05-21T01:10:26.400Z,48.80
2018-05-21T01:12:54.613Z,49.00
2018-05-21T01:15:23.094Z,49.10
2018-05-21T01:17:51.543Z,49.10
2018-05-21T01:20:19.745Z,49.10
2018-05-21T01:22:48.210Z,49.10
2018-05-21T01:25:15.920Z,49.00
2018-05-21T01:27:43.654Z,49.70
2018-05-21T01:30:12.143Z,49.40
2018-05-21T01:32:40.643Z,49.30
2018-05-21T01:35:08.338Z,49.30
2018-05-21T01:37:36.073Z,49.10
2018-05-21T01:40:03.799Z,49.80
2018-05-21T01:42:31.555Z,50.00
2018-05-21T01:44:59.307Z,50.20
2018-05-21T01:47:27.007Z,50.30
2018-05-21T01:49:55.621Z,50.40
2018-05-21T01:52:23.325Z,50.40
2018-05-21T01:54:51.023Z,50.20
2018-05-21T01:57:19.518Z,50.40
2018-05-21T01:59:47.216Z,50.30
2018-05-21T02:02:15.080Z,50.50
2018-05-21T02:04:42.770Z,50.60
2018-05-21T02:07:10.503Z,50.90
2018-05-21T02:09:38.245Z,50.90
2018-05-21T02:12:06.341Z,50.90
2018-05-21T02:14:34.568Z,51.00
2018-05-21T02:17:03.032Z,51.90
2018-05-21T02:19:30.733Z,51.90
2018-05-21T02:21:58.471Z,52.50
2018-05-21T02:24:26.160Z,53.60
2018-05-21T02:26:53.903Z,55.30
2018-05-21T02:29:22.367Z,55.60
2018-05-21T02:31:50.576Z,55.60
2018-05-21T02:34:18.292Z,55.50
2018-05-21T02:36:46.010Z,55.70
2018-05-21T02:39:13.757Z,56.20
2018-05-21T02:41:42.250Z,57.60
2018-05-21T02:44:11.052Z,57.20
2018-05-21T02:46:38.752Z,57.10
2018-05-21T02:49:06.475Z,57.50
2018-05-21T02:51:34.225Z,55.80
2018-05-21T02:54:02.689Z,55.40
2018-05-21T02:56:30.435Z,55.30
2018-05-21T02:58:58.135Z,57.30
2018-05-21T03:01:26.932Z,58.30
2018-05-21T03:03:54.631Z,57.60
2018-05-21T03:06:22.356Z,57.40
2018-05-21T03:08:50.882Z,59.80
2018-05-21T03:11:18.649Z,59.70
2018-05-21T03:13:46.354Z,58.90
2018-05-21T03:16:14.828Z,59.60
2018-05-21T03:18:43.385Z,60.20
2018-05-21T03:21:11.237Z,60.20
2018-05-21T03:23:38.933Z,58.30
2018-05-21T03:26:06.673Z,58.10
2018-05-21T03:28:34.419Z,58.60
2018-05-21T03:31:02.124Z,56.50
2018-05-21T03:33:29.889Z,55.40
2018-05-21T03:35:57.583Z,55.40
2018-05-21T03:38:25.316Z,57.30
2018-05-21T03:40:53.049Z,59.10
2018-05-21T03:43:20.752Z,57.80
2018-05-21T03:45:49.284Z,58.50
2018-05-21T03:48:16.980Z,57.70
2018-05-21T03:50:44.685Z,59.20
2018-05-21T03:53:13.180Z,57.70
2018-05-21T03:55:40.880Z,57.60
2018-05-21T03:58:20.540Z,55.70
2018-05-21T04:00:59.999Z,55.50
2018-05-21T04:03:40.491Z,56.60
2018-05-21T04:06:09.129Z,56.60
2018-05-21T04:08:36.818Z,56.70
2018-05-21T04:11:05.438Z,57.00
2018-05-21T04:13:33.140Z,56.90
2018-05-21T04:16:00.862Z,55.00
2018-05-21T04:18:28.592Z,54.10
2018-05-21T04:20:57.053Z,51.60
2018-05-21T04:23:25.140Z,51.50
2018-05-21T04:25:53.610Z,51.60
2018-05-21T04:28:21.297Z,51.60
2018-05-21T04:30:49.783Z,51.10
2018-05-21T04:33:17.480Z,51.10
2018-05-21T04:35:45.326Z,48.70
2018-05-21T04:38:13.023Z,46.90
2018-05-21T04:40:40.717Z,44.30
2018-05-21T04:43:09.223Z,42.00
2018-05-21T04:45:37.036Z,41.90
2018-05-21T04:48:04.900Z,40.90
2018-05-21T04:50:32.610Z,38.30
2018-05-21T04:53:01.068Z,37.70
2018-05-21T04:55:28.812Z,37.00
2018-05-21T04:57:56.498Z,37.30
2018-05-21T05:00:24.339Z,36.50
2018-05-21T05:02:52.111Z,36.10
2018-05-21T05:05:19.808Z,35.60
2018-05-21T05:07:48.789Z,36.10
2018-05-21T05:10:17.450Z,36.00
2018-05-21T05:12:46.061Z,32.50
2018-05-21T05:15:14.573Z,30.70
2018-05-21T05:17:42.263Z,30.70
2018-05-21T05:20:10.130Z,30.40
2018-05-21T05:22:38.885Z,32.60
2018-05-21T05:25:06.634Z,33.20
2018-05-21T05:27:37.438Z,34.90
2018-05-21T05:30:06.716Z,34.80
2018-05-21T05:32:34.439Z,36.10
2018-05-21T05:35:02.916Z,36.40
2018-05-21T05:37:31.376Z,37.30
2018-05-21T05:39:59.098Z,37.20
2018-05-21T05:42:26.784Z,37.80
2018-05-21T05:44:54.532Z,38.30
2018-05-21T05:47:22.322Z,37.50
2018-05-21T05:49:50.151Z,37.80
2018-05-21T05:52:17.859Z,37.00
2018-05-21T05:54:45.557Z,37.20
2018-05-21T05:57:14.074Z,37.60
2018-05-21T05:59:41.797Z,37.60
2018-05-21T06:02:10.439Z,37.60
2018-05-21T06:04:38.146Z,37.60
2018-05-21T06:07:06.626Z,40.60
2018-05-21T06:09:35.144Z,39.10
2018-05-21T06:12:02.884Z,39.10
2018-05-21T06:14:31.040Z,38.80
2018-05-21T06:16:59.518Z,38.80
2018-05-21T06:19:28.016Z,38.80
2018-05-21T06:21:56.277Z,38.70
2018-05-21T06:24:24.760Z,39.10
2018-05-21T06:26:53.251Z,39.10
2018-05-21T06:29:21.762Z,37.40
2018-05-21T06:31:49.999Z,37.40
2018-05-21T06:34:18.478Z,37.70
2018-05-21T06:36:46.972Z,38.40
2018-05-21T06:39:15.517Z,37.70
2018-05-21T06:41:43.220Z,37.60
2018-05-21T06:44:11.762Z,37.60
2018-05-21T06:46:39.494Z,37.50
2018-05-21T06:49:07.293Z,36.50
2018-05-21T06:51:35.067Z,37.50
2018-05-21T06:54:02.830Z,37.80
2018-05-21T06:56:30.683Z,38.30
2018-05-21T06:58:58.468Z,36.90
2018-05-21T07:01:27.073Z,38.20
2018-05-21T07:03:55.925Z,36.70
2018-05-21T07:06:23.668Z,36.60
2018-05-21T07:08:51.407Z,38.70
2018-05-21T07:11:19.142Z,39.50
2018-05-21T07:13:46.889Z,40.10
2018-05-21T07:16:14.639Z,39.80
2018-05-21T07:18:42.382Z,41.10
2018-05-21T07:21:10.086Z,40.10
2018-05-21T07:23:37.823Z,40.00
2018-05-21T07:26:05.526Z,40.20
2018-05-21T07:28:33.264Z,40.30
2018-05-21T07:31:01.365Z,39.60
2018-05-21T07:33:29.058Z,39.60
2018-05-21T07:35:56.773Z,39.90
2018-05-21T07:38:24.514Z,39.30
2018-05-21T07:40:52.232Z,40.10
2018-05-21T07:43:20.751Z,39.70
2018-05-21T07:45:48.440Z,39.70
2018-05-21T07:48:16.137Z,39.00
2018-05-21T07:50:44.736Z,39.90
2018-05-21T07:53:13.200Z,39.90
2018-05-21T07:55:41.676Z,39.20
2018-05-21T07:58:09.527Z,39.10
2018-05-21T08:00:37.232Z,40.00
2018-05-21T08:03:05.874Z,40.90
2018-05-21T08:05:33.559Z,40.90
2018-05-21T08:08:01.268Z,40.40
2018-05-21T08:10:29.062Z,39.60
2018-05-21T08:12:56.772Z,39.40
2018-05-21T08:15:25.244Z,40.40
2018-05-21T08:17:53.760Z,40.30
2018-05-21T08:20:21.494Z,40.30
2018-05-21T08:22:50.373Z,40.10
2018-05-21T08:25:18.125Z,40.10
2018-05-21T08:27:45.825Z,40.20
2018-05-21T08:30:13.631Z,40.30
2018-05-21T08:32:41.846Z,40.20
2018-05-21T08:35:10.311Z,40.70
2018-05-21T08:37:38.007Z,40.80
2018-05-21T08:40:06.528Z,41.60
2018-05-21T08:42:34.238Z,41.60
2018-05-21T08:45:03.096Z,40.10
2018-05-21T08:47:30.801Z,40.10
2018-05-21T08:49:59.257Z,41.40
2018-05-21T08:52:27.015Z,41.30
2018-05-21T08:54:55.528Z,41.20
2018-05-21T08:57:24.165Z,40.50
2018-05-21T08:59:51.873Z,40.40
2018-05-21T09:02:20.358Z,40.10
2018-05-21T09:04:49.054Z,41.10
2018-05-21T09:07:16.728Z,41.10
2018-05-21T09:09:44.430Z,38.40
2018-05-21T09:12:12.533Z,40.10
2018-05-21T09:14:41.012Z,41.60
2018-05-21T09:17:09.479Z,41.80
2018-05-21T09:19:37.225Z,41.90
2018-05-21T09:22:04.964Z,40.80
2018-05-21T09:24:32.696Z,41.80
2018-05-21T09:27:01.168Z,39.80
2018-05-21T09:29:29.016Z,39.80
2018-05-21T09:31:56.738Z,40.10
2018-05-21T09:34:24.424Z,41.60
2018-05-21T09:36:52.927Z,41.30
2018-05-21T09:39:20.620Z,41.20
2018-05-21T09:41:49.131Z,41.60
2018-05-21T09:44:16.880Z,41.50
2018-05-21T09:46:44.623Z,40.50
2018-05-21T09:49:13.242Z,40.50
2018-05-21T09:51:40.983Z,40.50
2018-05-21T09:54:09.461Z,40.00
2018-05-21T09:56:37.311Z,40.00
2018-05-21T09:59:05.009Z,39.30
2018-05-21T10:01:32.717Z,39.10
2018-05-21T10:04:00.445Z,39.10
2018-05-21T10:06:28.144Z,41.60
2018-05-21T10:08:55.887Z,40.10
2018-05-21T10:11:23.737Z,38.80
2018-05-21T10:13:51.433Z,38.80
2018-05-21T10:16:19.157Z,37.80
2018-05-21T10:18:47.008Z,36.90
2018-05-21T10:21:15.481Z,38.60
2018-05-21T10:23:43.977Z,39.10
2018-05-21T10:26:12.639Z,40.00
2018-05-21T10:28:41.828Z,37.70
2018-05-21T10:31:10.291Z,38.10
2018-05-21T10:33:38.045Z,38.20
2018-05-21T10:36:05.798Z,37.30
2018-05-21T10:38:34.033Z,34.80
2018-05-21T10:41:02.522Z,37.60
2018-05-21T10:43:31.084Z,38.00
2018-05-21T10:45:58.835Z,37.90
2018-05-21T10:48:26.528Z,38.80
2018-05-21T10:50:55.025Z,36.70
2018-05-21T10:53:23.512Z,36.70
2018-05-21T10:55:51.223Z,36.70
2018-05-21T10:58:19.060Z,36.90
2018-05-21T11:00:46.752Z,36.70
2018-05-21T11:03:14.455Z,36.20
2018-05-21T11:05:42.947Z,34.80
2018-05-21T11:08:10.656Z,34.70
2018-05-21T11:10:38.416Z,34.50
2018-05-21T11:13:06.129Z,34.30
2018-05-21T11:15:34.591Z,35.30
2018-05-21T11:18:02.399Z,35.30
2018-05-21T11:20:30.840Z,35.20
2018-05-21T11:22:58.577Z,35.00
2018-05-21T11:25:26.307Z,33.50
2018-05-21T11:27:53.997Z,34.50
2018-05-21T11:30:21.781Z,34.40
2018-05-21T11:32:49.498Z,33.80
2018-05-21T11:35:17.241Z,32.60
2018-05-21T11:37:45.722Z,34.50
2018-05-21T11:40:14.225Z,35.00
2018-05-21T11:42:41.929Z,35.00
2018-05-21T11:45:09.731Z,35.10
2018-05-21T11:47:38.229Z,35.10
2018-05-21T11:50:05.933Z,34.90
2018-05-21T11:52:33.785Z,34.00
2018-05-21T11:55:01.481Z,34.20
2018-05-21T11:57:29.166Z,35.60
2018-05-21T11:59:57.653Z,34.50
2018-05-21T12:02:26.251Z,33.80
2018-05-21T12:04:54.057Z,33.80
2018-05-21T12:07:22.531Z,33.10
2018-05-21T12:09:50.269Z,33.00
2018-05-21T12:12:17.961Z,33.10
2018-05-21T12:14:45.699Z,30.60
2018-05-21T12:17:13.396Z,31.70
2018-05-21T12:19:41.163Z,32.40
2018-05-21T12:22:08.868Z,33.30
2018-05-21T12:24:37.355Z,30.80
2018-05-21T12:27:05.893Z,30.70
2018-05-21T12:29:33.594Z,30.70
2018-05-21T12:32:02.104Z,31.90
2018-05-21T12:34:29.803Z,31.80
2018-05-21T12:36:57.553Z,32.60
2018-05-21T12:39:25.249Z,31.10
2018-05-21T12:41:53.002Z,30.10
2018-05-21T12:44:20.731Z,29.60
2018-05-21T12:46:48.443Z,31.50
2018-05-21T12:49:16.949Z,30.80
2018-05-21T12:51:45.556Z,30.70
2018-05-21T12:54:13.310Z,30.80
2018-05-21T12:56:41.009Z,33.20
2018-05-21T12:59:08.704Z,32.90
2018-05-21T13:01:37.208Z,31.90
2018-05-21T13:04:04.915Z,31.80
2018-05-21T13:06:33.014Z,32.70
2018-05-21T13:09:00.713Z,32.30
2018-05-21T13:11:28.403Z,30.60
2018-05-21T13:13:56.150Z,32.10
2018-05-21T13:16:23.865Z,33.50
2018-05-21T13:18:51.720Z,31.90
2018-05-21T13:21:19.414Z,32.20
2018-05-21T13:23:47.871Z,35.30
2018-05-21T13:26:15.717Z,35.20
2018-05-21T13:28:43.424Z,34.90
2018-05-21T13:31:11.894Z,33.30
2018-05-21T13:33:40.428Z,34.20
2018-05-21T13:36:08.126Z,34.20
2018-05-21T13:38:35.837Z,34.10
2018-05-21T13:41:03.648Z,35.00
2018-05-21T13:43:31.359Z,35.20
2018-05-21T13:45:59.121Z,35.70
2018-05-21T13:48:26.866Z,36.80
2018-05-21T13:50:54.607Z,36.10
2018-05-21T13:53:22.319Z,36.20
2018-05-21T13:55:50.013Z,35.10
2018-05-21T13:58:17.745Z,33.70
2018-05-21T14:00:45.479Z,35.60
2018-05-21T14:03:13.934Z,36.70
2018-05-21T14:05:42.060Z,36.00
2018-05-21T14:08:09.757Z,35.50
2018-05-21T14:10:37.465Z,35.30
2018-05-21T14:13:06.350Z,34.50
2018-05-21T14:15:34.820Z,34.50
2018-05-21T14:18:02.521Z,34.40
2018-05-21T14:20:30.293Z,35.40
2018-05-21T14:22:58.096Z,35.00
2018-05-21T14:25:25.909Z,36.10
2018-05-21T14:27:53.593Z,35.30
2018-05-21T14:30:21.288Z,36.50
2018-05-21T14:32:49.513Z,35.90
2018-05-21T14:35:18.131Z,35.90
2018-05-21T14:37:45.836Z,36.10
2018-05-21T14:40:14.439Z,37.30
2018-05-21T14:42:42.151Z,37.20
2018-05-21T14:45:09.857Z,35.60
2018-05-21T14:47:38.364Z,36.40
2018-05-21T14:50:07.020Z,36.50
2018-05-21T14:52:35.541Z,35.70
2018-05-21T14:55:03.362Z,35.70
2018-05-21T14:57:31.019Z,34.50
2018-05-21T14:59:59.546Z,34.90
2018-05-21T15:02:27.251Z,34.90
2018-05-21T15:04:55.000Z,34.70
2018-05-21T15:07:22.706Z,34.10
2018-05-21T15:09:51.199Z,34.40
2018-05-21T15:12:18.938Z,34.50
2018-05-21T15:14:47.463Z,35.50
2018-05-21T15:17:15.175Z,35.50
2018-05-21T15:19:43.643Z,34.60
2018-05-21T15:22:11.430Z,34.50
2018-05-21T15:24:39.922Z,34.70
2018-05-21T15:27:07.653Z,34.80
2018-05-21T15:29:35.349Z,34.30
2018-05-21T15:32:03.255Z,34.60
2018-05-21T15:34:30.972Z,33.90
2018-05-21T15:36:59.440Z,35.10
2018-05-21T15:39:27.957Z,35.20
2018-05-21T15:41:55.698Z,35.20
2018-05-21T15:44:23.486Z,35.70
2018-05-21T15:46:52.105Z,35.40
2018-05-21T15:49:19.896Z,35.50
2018-05-21T15:51:48.565Z,35.40
2018-05-21T15:54:16.268Z,35.40
2018-05-21T15:56:43.997Z,35.20
2018-05-21T15:59:13.024Z,35.40
2018-05-21T16:01:41.217Z,35.60
2018-05-21T16:04:08.933Z,35.70
2018-05-21T16:06:38.601Z,36.60
2018-05-21T16:09:07.753Z,36.60
2018-05-21T16:11:37.647Z,36.70
2018-05-21T16:14:06.116Z,35.80
2018-05-21T16:16:34.774Z,35.80
2018-05-21T16:19:02.490Z,35.90
2018-05-21T16:21:31.351Z,35.30
2018-05-21T16:23:59.139Z,35.30
2018-05-21T16:26:27.753Z,35.50
2018-05-21T16:28:55.470Z,35.50
2018-05-21T16:31:23.979Z,36.70
2018-05-21T16:33:53.328Z,36.70
2018-05-21T16:36:21.216Z,36.40
2018-05-21T16:38:50.036Z,36.50
2018-05-21T16:41:17.751Z,36.50
2018-05-21T16:43:45.605Z,36.40
2018-05-21T16:46:14.193Z,36.40
2018-05-21T16:48:42.292Z,36.60
2018-05-21T16:51:10.771Z,36.20
2018-05-21T16:53:39.234Z,35.50
2018-05-21T16:56:07.156Z,35.50
2018-05-21T16:58:34.908Z,36.00
2018-05-21T17:01:02.622Z,36.20
2018-05-21T17:03:30.348Z,36.50
2018-05-21T17:05:58.204Z,36.30
2018-05-21T17:08:25.922Z,36.70
2018-05-21T17:10:54.424Z,36.80
2018-05-21T17:13:22.183Z,36.80
2018-05-21T17:15:50.655Z,36.80
2018-05-21T17:18:19.173Z,36.40
2018-05-21T17:20:46.930Z,36.30
2018-05-21T17:23:14.648Z,36.50
2018-05-21T17:25:43.213Z,37.40
2018-05-21T17:28:10.946Z,37.40
2018-05-21T17:30:39.008Z,36.50
2018-05-21T17:33:11.263Z,37.20
2018-05-21T17:35:44.527Z,37.20
2018-05-21T17:38:12.644Z,37.10
2018-05-21T17:40:40.324Z,37.60
2018-05-21T17:43:08.040Z,37.10
2018-05-21T17:45:55.881Z,36.60
2018-05-21T17:48:25.746Z,36.70
2018-05-21T17:50:53.639Z,36.70
2018-05-21T17:53:23.768Z,37.00
2018-05-21T17:55:54.358Z,36.40
2018-05-21T17:58:22.882Z,36.50
2018-05-21T18:03:41.260Z,36.70
2018-05-21T18:06:09.584Z,36.00
2018-05-21T18:08:37.292Z,36.20
2018-05-21T18:11:06.984Z,36.30
2018-05-21T18:13:34.763Z,36.00
2018-05-21T18:16:02.549Z,36.20
2018-05-21T18:18:30.278Z,36.10
2018-05-21T18:21:00.825Z,36.20
2018-05-21T18:23:29.558Z,36.10
2018-05-21T18:25:58.037Z,35.90
2018-05-21T18:28:26.779Z,36.20
2018-05-21T18:30:56.429Z,36.50
2018-05-21T18:33:25.109Z,36.50
2018-05-21T18:35:55.343Z,37.10
2018-05-21T18:38:23.964Z,36.90
2018-05-21T18:40:52.476Z,36.80
2018-05-21T18:43:21.732Z,36.70
2018-05-21T18:45:50.588Z,36.90
2018-05-21T18:48:19.985Z,37.00
2018-05-21T18:50:56.240Z,36.80
2018-05-21T18:53:23.949Z,36.70
2018-05-21T18:55:54.926Z,37.40
2018-05-21T18:58:25.409Z,37.40
2018-05-21T19:00:56.922Z,37.20
2018-05-21T19:03:24.831Z,37.20
2018-05-21T19:05:53.480Z,36.90
2018-05-21T19:08:21.601Z,36.90
2018-05-21T19:10:49.879Z,37.20
2018-05-21T19:13:18.471Z,37.20
2018-05-21T19:15:46.559Z,37.30
2018-05-21T19:18:15.231Z,37.30
2018-05-21T19:20:43.194Z,37.30
2018-05-21T19:23:10.894Z,37.20
2018-05-21T19:25:39.095Z,37.10
2018-05-21T19:28:07.576Z,37.70
2018-05-21T19:30:36.041Z,38.30
2018-05-21T19:33:04.189Z,38.30
2018-05-21T19:35:31.898Z,38.10
2018-05-21T19:38:00.376Z,38.60
2018-05-21T19:40:28.912Z,38.00
2018-05-21T19:42:56.672Z,38.00
2018-05-21T19:45:24.375Z,37.90
2018-05-21T19:47:52.834Z,38.70
2018-05-21T19:50:20.694Z,37.90
2018-05-21T19:52:48.400Z,37.80
2018-05-21T19:55:16.863Z,37.50
2018-05-21T19:57:45.365Z,37.70
2018-05-21T20:00:13.863Z,38.20
2018-05-21T20:02:41.746Z,38.30
2018-05-21T20:05:11.447Z,37.40
2018-05-21T20:07:39.252Z,38.00
2018-05-21T20:10:07.113Z,37.80
2018-05-21T20:12:34.851Z,38.00
2018-05-21T20:15:02.648Z,37.00
2018-05-21T20:17:30.336Z,37.70
2018-05-21T20:20:21.023Z,37.90
2018-05-21T20:23:09.856Z,38.20
2018-05-21T20:25:59.347Z,38.20
2018-05-21T20:28:47.162Z,38.10
2018-05-21T20:31:34.483Z,38.10
2018-05-21T20:34:20.000Z,38.10
2018-05-21T20:36:49.848Z,38.40
2018-05-21T20:39:19.409Z,38.40
2018-05-21T20:41:47.881Z,38.50
2018-05-21T20:44:16.943Z,38.80
2018-05-21T20:46:45.331Z,38.80
2018-05-21T20:49:13.600Z,38.70
2018-05-21T20:51:43.488Z,38.80
2018-05-21T20:54:12.301Z,38.80
2018-05-21T20:56:40.782Z,38.90
2018-05-21T20:59:10.595Z,38.90
2018-05-21T21:01:39.468Z,39.00
2018-05-21T21:04:10.861Z,39.00
2018-05-21T21:06:41.406Z,39.20
2018-05-21T21:09:09.566Z,39.20
2018-05-21T21:11:38.802Z,39.50
2018-05-21T21:14:07.316Z,39.80
2018-05-21T21:16:35.018Z,39.60
2018-05-21T21:19:02.748Z,39.60
2018-05-21T21:21:30.452Z,39.60
2018-05-21T21:23:58.198Z,39.80
2018-05-21T21:26:26.684Z,40.00
2018-05-21T21:28:54.408Z,40.00
2018-05-21T21:31:22.099Z,39.90
2018-05-21T21:33:50.975Z,39.90
2018-05-21T21:36:19.458Z,41.20
2018-05-21T21:38:47.911Z,40.80
2018-05-21T21:41:15.659Z,40.70
2018-05-21T21:43:43.369Z,41.00
2018-05-21T21:46:11.871Z,40.90
2018-05-21T21:48:39.575Z,40.90
2018-05-21T21:51:07.312Z,41.10
2018-05-21T21:53:35.002Z,41.40
2018-05-21T21:56:02.768Z,41.60
2018-05-21T21:58:30.971Z,41.70
2018-05-21T22:00:59.464Z,41.50
2018-05-21T22:03:27.244Z,41.30
2018-05-21T22:05:54.992Z,41.80
2018-05-21T22:08:22.698Z,42.00
2018-05-21T22:10:50.452Z,42.20
2018-05-21T22:13:18.161Z,42.40
2018-05-21T22:15:46.776Z,42.70
2018-05-21T22:18:14.480Z,42.60
2018-05-21T22:20:42.171Z,42.90
2018-05-21T22:23:10.783Z,42.80
2018-05-21T22:25:38.520Z,42.70
2018-05-21T22:28:06.978Z,43.30
2018-05-21T22:30:34.720Z,43.30
2018-05-21T22:33:02.415Z,43.60
2018-05-21T22:35:31.037Z,43.80
2018-05-21T22:37:59.263Z,43.80
2018-05-21T22:40:26.956Z,43.60
2018-05-21T22:42:56.409Z,43.60
2018-05-21T22:45:24.195Z,43.50
2018-05-21T22:47:55.331Z,43.80
2018-05-21T22:50:23.244Z,44.80
2018-05-21T22:52:50.945Z,44.10
2018-05-21T22:55:18.809Z,44.60
2018-05-21T22:57:46.545Z,45.00
2018-05-21T23:00:14.285Z,45.20
2018-05-21T23:02:42.440Z,45.60
2018-05-21T23:05:10.916Z,45.30
2018-05-21T23:07:39.404Z,46.00
2018-05-21T23:10:08.068Z,46.20
2018-05-21T23:12:35.776Z,46.10
2018-05-21T23:15:03.540Z,46.20
2018-05-21T23:17:31.377Z,46.30
2018-05-21T23:19:59.850Z,46.70
2018-05-21T23:22:40.292Z,46.90
2018-05-21T23:25:08.023Z,46.90
2018-05-21T23:27:35.737Z,46.90
2018-05-21T23:30:04.292Z,47.30
2018-05-21T23:32:33.218Z,47.20
2018-05-21T23:35:01.674Z,47.60
2018-05-21T23:37:29.360Z,47.60
2018-05-21T23:39:57.875Z,47.40
2018-05-21T23:42:25.608Z,47.40
2018-05-21T23:44:54.479Z,48.30
2018-05-21T23:47:22.930Z,48.50
2018-05-21T23:49:50.628Z,47.80
2018-05-21T23:52:19.145Z,48.30
2018-05-21T23:54:46.823Z,48.20
2018-05-21T23:57:14.522Z,47.80
2018-05-21T23:59:43.024Z,48.50
